createdAt,value
2022-11-13T00:01:15.850Z,99915.63
2022-11-13T00:04:02.312Z,99905.44
2022-11-13T00:06:50.195Z,99912.06
2022-11-13T00:09:38.832Z,99902.00
2022-11-13T00:12:26.021Z,99900.63
2022-11-13T00:15:12.804Z,99900.97
2022-11-13T00:18:03.349Z,99901.75
2022-11-13T00:20:49.813Z,99887.03
2022-11-13T00:23:36.757Z,99884.34
2022-11-13T00:26:28.964Z,99884.03
2022-11-13T00:29:15.602Z,99880.50
2022-11-13T00:32:02.166Z,99885.38
2022-11-13T00:34:49.239Z,99891.34
2022-11-13T00:37:35.895Z,99881.03
2022-11-13T00:40:22.415Z,99891.84
2022-11-13T00:43:08.965Z,99895.72
2022-11-13T00:45:56.703Z,99882.34
2022-11-13T00:48:43.347Z,99874.94
2022-11-13T00:51:30.362Z,99874.69
2022-11-13T00:54:16.708Z,99881.03
2022-11-13T00:57:03.598Z,99876.94
2022-11-13T00:59:50.207Z,99873.97
2022-11-13T01:02:36.674Z,99872.09
2022-11-13T01:05:23.517Z,99867.69
2022-11-13T01:08:12.291Z,99865.25
2022-11-13T01:10:58.783Z,99857.09
2022-11-13T01:13:48.081Z,99854.06
2022-11-13T01:16:34.727Z,99859.53
2022-11-13T01:19:21.369Z,99851.38
2022-11-13T01:22:07.843Z,99849.75
2022-11-13T01:24:54.335Z,99848.94
2022-11-13T01:27:41.470Z,99849.75
2022-11-13T01:30:28.033Z,99853.28
2022-11-13T01:33:15.006Z,99848.94
2022-11-13T01:36:08.015Z,99843.75
2022-11-13T01:38:55.651Z,99822.25
2022-11-13T01:41:42.890Z,99824.41
2022-11-13T01:44:47.390Z,99820.34
2022-11-13T01:47:34.115Z,99816.53
2022-11-13T01:50:21.053Z,99819.50
2022-11-13T01:53:07.713Z,99809.19
2022-11-13T01:55:54.740Z,99809.19
2022-11-13T01:58:44.649Z,99802.38
2022-11-13T02:01:31.515Z,99794.19
2022-11-13T02:04:18.289Z,99798.56
2022-11-13T02:07:08.681Z,99797.16
2022-11-13T02:09:58.510Z,99788.97
2022-11-13T02:12:50.801Z,99795.00
2022-11-13T02:15:37.512Z,99787.66
2022-11-13T02:18:27.941Z,99784.38
2022-11-13T02:21:20.270Z,99777.81
2022-11-13T02:24:32.644Z,99771.31
2022-11-13T02:27:30.761Z,99755.78
2022-11-13T02:30:27.128Z,99762.31
2022-11-13T02:33:31.499Z,99761.22
2022-11-13T02:36:23.214Z,99764.19
2022-11-13T02:39:12.857Z,99770.19
2022-11-13T02:41:59.445Z,99766.41
2022-11-13T02:44:46.026Z,99759.88
2022-11-13T02:47:33.371Z,99761.25
2022-11-13T02:50:20.171Z,99773.19
2022-11-13T02:53:07.025Z,99763.97
2022-11-13T02:55:53.674Z,99755.50
2022-11-13T02:58:40.509Z,99748.16
2022-11-13T03:01:27.362Z,99755.53
2022-11-13T03:04:13.770Z,99759.59
2022-11-13T03:07:00.290Z,99748.13
2022-11-13T03:09:46.843Z,99745.44
2022-11-13T03:12:34.903Z,99738.31
2022-11-13T03:15:21.617Z,99742.13
2022-11-13T03:18:08.705Z,99736.69
2022-11-13T03:20:55.959Z,99731.81
2022-11-13T03:23:45.277Z,99734.81
2022-11-13T03:26:32.104Z,99731.56
2022-11-13T03:29:18.646Z,99731.31
2022-11-13T03:32:05.669Z,99741.91
2022-11-13T03:34:52.014Z,99730.75
2022-11-13T03:37:38.767Z,99730.22
2022-11-13T03:40:25.487Z,99724.22
2022-11-13T03:43:12.298Z,99712.78
2022-11-13T03:45:58.566Z,99722.88
2022-11-13T03:48:45.142Z,99719.06
2022-11-13T03:51:31.698Z,99716.88
2022-11-13T03:54:18.262Z,99720.13
2022-11-13T03:57:04.824Z,99713.88
2022-11-13T03:59:51.506Z,99699.44
2022-11-13T04:02:38.175Z,99691.03
2022-11-13T04:05:26.766Z,99691.84
2022-11-13T04:08:14.539Z,99688.31
2022-11-13T04:11:12.348Z,99679.84
2022-11-13T04:13:58.633Z,99687.22
2022-11-13T04:16:45.271Z,99684.78
2022-11-13T04:19:32.148Z,99683.94
2022-11-13T04:22:18.719Z,99678.78
2022-11-13T04:25:06.537Z,99670.03
2022-11-13T04:27:53.446Z,99667.00
2022-11-13T04:30:39.989Z,99664.88
2022-11-13T04:33:26.499Z,99659.94
2022-11-13T04:36:14.126Z,99657.81
2022-11-13T04:39:00.273Z,99658.88
2022-11-13T04:42:05.325Z,99653.19
2022-11-13T04:44:52.045Z,99642.00
2022-11-13T04:47:38.676Z,99632.16
2022-11-13T04:50:25.328Z,99624.50
2022-11-13T04:53:11.947Z,99623.44
2022-11-13T04:55:59.320Z,99624.03
2022-11-13T04:58:45.852Z,99615.34
2022-11-13T05:01:32.592Z,99611.78
2022-11-13T05:04:19.254Z,99595.50
2022-11-13T05:07:07.793Z,99603.41
2022-11-13T05:09:54.939Z,99602.63
2022-11-13T05:12:41.563Z,99608.56
2022-11-13T05:15:28.232Z,99609.38
2022-11-13T05:18:14.736Z,99594.72
2022-11-13T05:21:01.966Z,99584.63
2022-11-13T05:23:49.992Z,99558.47
2022-11-13T05:26:38.517Z,99546.44
2022-11-13T05:29:24.912Z,99549.97
2022-11-13T05:32:11.866Z,99571.56
2022-11-13T05:34:58.171Z,99557.41
2022-11-13T05:37:44.843Z,99564.22
2022-11-13T05:40:31.474Z,99573.50
2022-11-13T05:43:18.093Z,99572.41
2022-11-13T05:46:07.357Z,99563.69
2022-11-13T05:48:59.516Z,99560.13
2022-11-13T05:51:46.229Z,99568.88
2022-11-13T05:54:32.936Z,99559.03
2022-11-13T05:57:19.623Z,99569.16
2022-11-13T06:00:07.190Z,99575.38
2022-11-13T06:02:53.928Z,99586.75
2022-11-13T06:05:40.456Z,99581.31
2022-11-13T06:08:27.988Z,99565.03
2022-11-13T06:11:21.673Z,99567.69
2022-11-13T06:14:07.935Z,99567.97
2022-11-13T06:16:54.281Z,99561.19
2022-11-13T06:19:40.990Z,99562.84
2022-11-13T06:22:28.681Z,99573.44
2022-11-13T06:25:15.213Z,99560.56
2022-11-13T06:28:01.795Z,99551.53
2022-11-13T06:30:48.408Z,99548.25
2022-11-13T06:33:35.454Z,99548.78
2022-11-13T06:36:27.262Z,99570.09
2022-11-13T06:39:14.023Z,99563.84
2022-11-13T06:42:00.635Z,99562.63
2022-11-13T06:44:47.157Z,99574.19
2022-11-13T06:47:33.592Z,99574.75
2022-11-13T06:50:20.017Z,99573.09
2022-11-13T06:53:06.261Z,99571.91
2022-11-13T06:55:52.509Z,99568.38
2022-11-13T06:58:40.618Z,99574.63
2022-11-13T07:01:27.490Z,99578.03
2022-11-13T07:04:14.703Z,99567.81
2022-11-13T07:07:01.267Z,99555.81
2022-11-13T07:09:48.322Z,99561.31
2022-11-13T07:12:35.303Z,99557.34
2022-11-13T07:15:21.885Z,99556.03
2022-11-13T07:18:08.397Z,99547.00
2022-11-13T07:20:54.794Z,99554.03
2022-11-13T07:23:44.658Z,99565.78
2022-11-13T07:26:31.025Z,99556.53
2022-11-13T07:29:17.538Z,99568.75
2022-11-13T07:32:04.256Z,99565.41
2022-11-13T07:34:50.698Z,99562.19
2022-11-13T07:37:37.440Z,99559.66
2022-11-13T07:40:24.228Z,99557.03
2022-11-13T07:43:11.228Z,99565.72
2022-11-13T07:45:59.098Z,99566.94
2022-11-13T07:48:45.623Z,99557.72
2022-11-13T07:51:32.273Z,99557.16
2022-11-13T07:54:18.848Z,99551.00
2022-11-13T07:57:05.869Z,99565.63
2022-11-13T07:59:52.475Z,99571.53
2022-11-13T08:02:39.242Z,99578.19
2022-11-13T08:05:25.857Z,99576.44
2022-11-13T08:08:14.437Z,99569.91
2022-11-13T08:11:06.287Z,99568.75
2022-11-13T08:13:52.870Z,99562.59
2022-11-13T08:16:39.413Z,99554.09
2022-11-13T08:19:26.080Z,99564.47
2022-11-13T08:22:12.607Z,99560.19
2022-11-13T08:24:59.255Z,99552.94
2022-11-13T08:27:45.733Z,99562.75
2022-11-13T08:30:32.424Z,99555.19
2022-11-13T08:33:19.118Z,99548.09
2022-11-13T08:36:05.918Z,99550.72
2022-11-13T08:38:52.186Z,99550.69
2022-11-13T08:41:38.661Z,99561.75
2022-11-13T08:44:25.328Z,99559.38
2022-11-13T08:47:11.682Z,99543.81
2022-11-13T08:49:58.005Z,99550.28
2022-11-13T08:52:46.424Z,99532.97
2022-11-13T08:55:33.696Z,99531.41
2022-11-13T08:58:20.161Z,99515.56
2022-11-13T09:01:06.857Z,99531.69
2022-11-13T09:03:53.246Z,99530.03
2022-11-13T09:06:39.729Z,99531.16
2022-11-13T09:09:26.486Z,99520.59
2022-11-13T09:12:13.269Z,99532.19
2022-11-13T09:14:59.807Z,99516.38
2022-11-13T09:17:46.259Z,99521.78
2022-11-13T09:20:33.613Z,99519.00
2022-11-13T09:23:21.031Z,99526.00
2022-11-13T09:26:07.620Z,99531.28
2022-11-13T09:28:54.331Z,99521.47
2022-11-13T09:31:41.497Z,99522.19
2022-11-13T09:34:28.011Z,99510.13
2022-11-13T09:37:15.970Z,99514.97
2022-11-13T09:40:03.195Z,99519.03
2022-11-13T09:42:50.033Z,99521.91
2022-11-13T09:45:37.608Z,99518.44
2022-11-13T09:48:40.498Z,99515.53
2022-11-13T09:51:36.723Z,99503.44
2022-11-13T09:54:24.743Z,99489.94
2022-11-13T09:57:14.021Z,99497.88
2022-11-13T10:00:07.752Z,99505.91
2022-11-13T10:03:12.642Z,99510.66
2022-11-13T10:06:22.794Z,99488.22
2022-11-13T10:09:29.394Z,99482.28
2022-11-13T10:12:16.276Z,99473.50
2022-11-13T10:15:05.860Z,99466.22
2022-11-13T10:18:10.709Z,99468.56
2022-11-13T10:21:26.199Z,99458.69
2022-11-13T10:24:20.999Z,99464.75
2022-11-13T10:27:12.862Z,99459.66
2022-11-13T10:29:59.660Z,99463.75
2022-11-13T10:32:47.864Z,99452.78
2022-11-13T10:35:42.181Z,99453.47
2022-11-13T10:38:36.680Z,99450.47
2022-11-13T10:41:23.382Z,99447.06
2022-11-13T10:44:22.436Z,99445.94
2022-11-13T10:47:22.592Z,99441.09
2022-11-13T10:50:31.315Z,99437.31
2022-11-13T10:53:19.358Z,99427.66
2022-11-13T10:56:30.571Z,99422.00
2022-11-13T10:59:19.574Z,99421.06
2022-11-13T11:02:11.539Z,99414.47
2022-11-13T11:05:05.643Z,99408.97
2022-11-13T11:07:54.051Z,99403.50
2022-11-13T11:11:00.628Z,99395.41
2022-11-13T11:13:48.731Z,99383.59
2022-11-13T11:16:36.916Z,99386.66
2022-11-13T11:19:29.912Z,99366.88
2022-11-13T11:22:22.169Z,99355.72
2022-11-13T11:25:18.614Z,99357.59
2022-11-13T11:28:13.376Z,99355.72
2022-11-13T11:31:09.546Z,99350.66
2022-11-13T11:34:10.401Z,99340.09
2022-11-13T11:37:09.932Z,99330.81
2022-11-13T11:40:16.657Z,99337.41
2022-11-13T11:43:43.639Z,99335.34
2022-11-13T11:46:30.918Z,99324.94
2022-11-13T11:49:20.203Z,99321.22
2022-11-13T11:52:21.885Z,99322.41
2022-11-13T11:55:23.387Z,99317.75
2022-11-13T11:58:24.700Z,99311.47
2022-11-13T12:01:28.265Z,99297.63
2022-11-13T12:04:25.870Z,99299.09
2022-11-13T12:07:33.808Z,99292.19
2022-11-13T12:10:38.347Z,99280.84
2022-11-13T12:13:28.360Z,99285.97
2022-11-13T12:16:24.867Z,99277.34
2022-11-13T12:19:35.094Z,99268.63
2022-11-13T12:22:59.391Z,99264.00
2022-11-13T12:26:02.368Z,99262.47
2022-11-13T12:29:06.106Z,99255.03
2022-11-13T12:31:55.145Z,99258.41
2022-11-13T12:34:52.355Z,99264.69
2022-11-13T12:37:57.677Z,99274.75
2022-11-13T12:40:53.243Z,99273.84
2022-11-13T12:43:42.506Z,99276.41
2022-11-13T12:46:35.955Z,99273.59
2022-11-13T12:49:32.283Z,99263.72
2022-11-13T12:52:22.784Z,99261.19
2022-11-13T12:55:27.793Z,99260.47
2022-11-13T12:58:28.525Z,99250.53
2022-11-13T13:01:19.809Z,99252.19
2022-11-13T13:04:37.558Z,99248.59
2022-11-13T13:07:39.277Z,99244.75
2022-11-13T13:11:03.335Z,99234.53
2022-11-13T13:13:49.866Z,99236.16
2022-11-13T13:16:36.973Z,99235.34
2022-11-13T13:19:24.805Z,99239.84
2022-11-13T13:22:23.389Z,99229.78
2022-11-13T13:25:45.502Z,99224.09
2022-11-13T13:28:33.604Z,99216.38
2022-11-13T13:31:44.829Z,99221.72
2022-11-13T13:34:40.518Z,99218.16
2022-11-13T13:38:11.975Z,99219.28
2022-11-13T13:41:25.615Z,99216.78
2022-11-13T13:44:26.472Z,99220.88
2022-11-13T13:47:46.721Z,99214.94
2022-11-13T13:50:48.768Z,99217.91
2022-11-13T13:53:36.478Z,99210.75
2022-11-13T13:56:23.641Z,99218.66
2022-11-13T13:59:33.459Z,99219.34
2022-11-13T14:02:23.334Z,99209.44
2022-11-13T14:05:24.577Z,99213.34
2022-11-13T14:08:22.915Z,99208.31
2022-11-13T14:11:21.445Z,99213.03
2022-11-13T14:14:18.201Z,99209.72
2022-11-13T14:17:04.693Z,99198.00
2022-11-13T14:19:54.861Z,99189.63
2022-11-13T14:22:44.952Z,99191.97
2022-11-13T14:25:31.748Z,99192.25
2022-11-13T14:28:20.903Z,99187.00
2022-11-13T14:31:10.047Z,99179.59
2022-11-13T14:34:03.426Z,99168.84
2022-11-13T14:36:50.109Z,99178.28
2022-11-13T14:39:36.742Z,99176.38
2022-11-13T14:42:30.814Z,99168.03
2022-11-13T14:45:18.420Z,99183.25
2022-11-13T14:48:20.932Z,99177.38
2022-11-13T14:51:24.341Z,99178.72
2022-11-13T14:54:33.764Z,99184.09
2022-11-13T14:57:28.185Z,99180.25
2022-11-13T15:00:20.319Z,99179.44
2022-11-13T15:03:06.962Z,99171.97
2022-11-13T15:05:53.618Z,99175.38
2022-11-13T15:08:40.552Z,99180.84
2022-11-13T15:11:27.343Z,99180.28
2022-11-13T15:14:16.845Z,99189.91
2022-11-13T15:17:03.389Z,99189.09
2022-11-13T15:19:53.348Z,99191.00
2022-11-13T15:22:41.087Z,99188.81
2022-11-13T15:25:27.509Z,99187.09
2022-11-13T15:28:13.978Z,99181.66
2022-11-13T15:31:00.974Z,99182.78
2022-11-13T15:33:48.323Z,99193.03
2022-11-13T15:36:34.619Z,99195.25
2022-11-13T15:39:23.692Z,99192.53
2022-11-13T15:42:17.792Z,99198.88
2022-11-13T15:45:07.988Z,99195.59
2022-11-13T15:47:54.518Z,99191.50
2022-11-13T15:50:40.771Z,99172.72
2022-11-13T15:53:27.429Z,99176.41
2022-11-13T15:56:14.477Z,99179.50
2022-11-13T15:59:01.424Z,99169.66
2022-11-13T16:01:48.267Z,99168.13
2022-11-13T16:04:55.115Z,99171.72
2022-11-13T16:07:43.820Z,99180.97
2022-11-13T16:10:30.923Z,99181.16
2022-11-13T16:13:17.461Z,99179.06
2022-11-13T16:16:04.564Z,99173.78
2022-11-13T16:18:55.865Z,99180.44
2022-11-13T16:21:45.635Z,99182.38
2022-11-13T16:24:32.443Z,99178.66
2022-11-13T16:27:28.584Z,99188.66
2022-11-13T16:30:20.180Z,99188.19
2022-11-13T16:33:09.646Z,99189.31
2022-11-13T16:35:56.198Z,99193.69
2022-11-13T16:38:42.872Z,99191.59
2022-11-13T16:41:31.666Z,99186.91
2022-11-13T16:44:18.313Z,99182.88
2022-11-13T16:47:06.699Z,99196.16
2022-11-13T16:49:53.433Z,99191.31
2022-11-13T16:52:40.914Z,99191.13
2022-11-13T16:55:27.516Z,99179.81
2022-11-13T16:58:14.285Z,99184.69
2022-11-13T17:01:01.872Z,99172.38
2022-11-13T17:03:48.699Z,99178.03
2022-11-13T17:06:37.016Z,99174.28
2022-11-13T17:09:23.401Z,99176.75
2022-11-13T17:12:10.885Z,99181.59
2022-11-13T17:14:57.113Z,99169.59
2022-11-13T17:17:44.212Z,99155.09
2022-11-13T17:20:31.389Z,99175.13
2022-11-13T17:23:17.588Z,99163.97
2022-11-13T17:26:05.311Z,99169.47
2022-11-13T17:28:52.727Z,99160.09
2022-11-13T17:31:40.090Z,99177.91
2022-11-13T17:34:26.745Z,99175.28
2022-11-13T17:37:13.435Z,99166.84
2022-11-13T17:39:59.783Z,99163.16
2022-11-13T17:42:48.150Z,99167.06
2022-11-13T17:45:38.802Z,99163.34
2022-11-13T17:48:25.250Z,99153.50
2022-11-13T17:51:14.325Z,99151.06
2022-11-13T17:54:00.867Z,99163.53
2022-11-13T17:56:47.752Z,99160.56
2022-11-13T17:59:35.173Z,99163.81
2022-11-13T18:02:21.755Z,99161.06
2022-11-13T18:05:09.937Z,99157.84
2022-11-13T18:07:56.981Z,99148.31
2022-11-13T18:10:43.562Z,99156.25
2022-11-13T18:13:30.857Z,99159.63
2022-11-13T18:16:21.380Z,99157.34
2022-11-13T18:19:09.310Z,99171.75
2022-11-13T18:21:56.158Z,99170.94
2022-11-13T18:24:43.567Z,99175.97
2022-11-13T18:27:31.225Z,99167.25
2022-11-13T18:30:18.962Z,99173.53
2022-11-13T18:33:06.817Z,99175.00
2022-11-13T18:35:55.748Z,99178.53
2022-11-13T18:38:43.602Z,99174.69
2022-11-13T18:41:30.925Z,99178.06
2022-11-13T18:44:17.705Z,99170.47
2022-11-13T18:47:04.050Z,99169.34
2022-11-13T18:49:50.657Z,99155.25
2022-11-13T18:52:37.334Z,99159.66
2022-11-13T18:55:23.957Z,99159.31
2022-11-13T18:58:10.206Z,99158.47
2022-11-13T19:00:57.189Z,99159.94
2022-11-13T19:04:08.131Z,99171.56
2022-11-13T19:06:51.864Z,99161.41
2022-11-13T19:09:44.788Z,99164.81
2022-11-13T19:12:31.832Z,99156.06
2022-11-13T19:15:18.464Z,99163.19
2022-11-13T19:18:07.171Z,99174.34
2022-11-13T19:20:54.258Z,99165.16
2022-11-13T19:23:40.799Z,99165.44
2022-11-13T19:26:27.925Z,99164.31
2022-11-13T19:29:14.717Z,99171.13
2022-11-13T19:32:01.304Z,99171.88
2022-11-13T19:34:47.501Z,99171.28
2022-11-13T19:37:33.968Z,99170.94
2022-11-13T19:40:20.675Z,99176.75
2022-11-13T19:43:07.015Z,99174.41
2022-11-13T19:45:53.732Z,99173.47
2022-11-13T19:48:43.901Z,99167.00
2022-11-13T19:51:30.637Z,99176.88
2022-11-13T19:54:16.787Z,99177.06
2022-11-13T19:57:03.214Z,99171.38
2022-11-13T19:59:49.662Z,99180.25
2022-11-13T20:02:36.846Z,99177.16
2022-11-13T20:05:23.559Z,99179.09
2022-11-13T20:08:12.850Z,99177.97
2022-11-13T20:11:10.075Z,99185.41
2022-11-13T20:13:57.136Z,99180.97
2022-11-13T20:16:43.348Z,99185.44
2022-11-13T20:19:30.288Z,99178.91
2022-11-13T20:22:16.501Z,99171.16
2022-11-13T20:25:03.170Z,99169.75
2022-11-13T20:27:49.366Z,99174.28
2022-11-13T20:30:36.517Z,99166.28
2022-11-13T20:33:23.164Z,99178.09
2022-11-13T20:36:10.007Z,99179.19
2022-11-13T20:38:57.672Z,99157.25
2022-11-13T20:41:43.917Z,99172.41
2022-11-13T20:44:30.778Z,99158.72
2022-11-13T20:47:17.327Z,99158.25
2022-11-13T20:50:04.057Z,99154.22
2022-11-13T20:52:50.925Z,99166.88
2022-11-13T20:55:38.992Z,99161.97
2022-11-13T20:58:25.687Z,99164.53
2022-11-13T21:01:16.517Z,99162.25
2022-11-13T21:04:03.356Z,99161.44
2022-11-13T21:06:50.055Z,99160.81
2022-11-13T21:09:36.360Z,99156.94
2022-11-13T21:12:22.713Z,99152.38
2022-11-13T21:15:09.524Z,99149.19
2022-11-13T21:17:58.432Z,99145.03
2022-11-13T21:20:44.653Z,99146.38
2022-11-13T21:23:31.338Z,99135.75
2022-11-13T21:26:17.867Z,99140.97
2022-11-13T21:29:04.484Z,99133.69
2022-11-13T21:31:51.541Z,99132.63
2022-11-13T21:34:38.855Z,99131.06
2022-11-13T21:37:26.336Z,99124.53
2022-11-13T21:40:13.484Z,99133.97
2022-11-13T21:43:00.183Z,99130.75
2022-11-13T21:45:46.404Z,99127.19
2022-11-13T21:48:33.539Z,99124.75
2022-11-13T21:51:20.147Z,99122.72
2022-11-13T21:54:07.615Z,99121.19
2022-11-13T21:56:54.289Z,99126.56
2022-11-13T21:59:40.831Z,99124.88
2022-11-13T22:02:26.994Z,99117.97
2022-11-13T22:05:13.572Z,99124.63
2022-11-13T22:08:00.847Z,99131.69
2022-11-13T22:10:47.323Z,99122.16
2022-11-13T22:13:34.584Z,99132.31
2022-11-13T22:16:22.915Z,99133.59
2022-11-13T22:19:12.957Z,99130.03
2022-11-13T22:21:59.507Z,99130.88
2022-11-13T22:24:45.955Z,99142.63
2022-11-13T22:27:32.727Z,99130.81
2022-11-13T22:30:19.262Z,99132.41
2022-11-13T22:33:06.183Z,99139.69
2022-11-13T22:35:52.831Z,99115.66
2022-11-13T22:38:40.955Z,99121.91
2022-11-13T22:41:33.196Z,99112.59
2022-11-13T22:44:19.613Z,99109.16
2022-11-13T22:47:06.505Z,99107.31
2022-11-13T22:49:53.093Z,99102.41
2022-11-13T22:52:39.667Z,99107.53
2022-11-13T22:55:26.245Z,99110.31
2022-11-13T22:58:12.961Z,99102.13
2022-11-13T23:01:05.605Z,99095.81
2022-11-13T23:03:54.596Z,99101.75
2022-11-13T23:06:43.107Z,99088.72
2022-11-13T23:09:29.691Z,99088.72
2022-11-13T23:12:16.150Z,99089.25
2022-11-13T23:15:03.030Z,99091.59
2022-11-13T23:17:49.677Z,99104.75
2022-11-13T23:20:43.545Z,99110.19
2022-11-13T23:23:31.160Z,99100.69
2022-11-13T23:26:18.654Z,99105.75
2022-11-13T23:29:05.113Z,99104.97
2022-11-13T23:31:51.533Z,99107.34
2022-11-13T23:34:58.841Z,99106.09
2022-11-13T23:37:45.018Z,99104.22
2022-11-13T23:40:31.789Z,99097.94
2022-11-13T23:43:18.280Z,99090.31
2022-11-13T23:46:05.196Z,99090.69
2022-11-13T23:48:51.889Z,99087.28
2022-11-13T23:51:38.872Z,99085.22
2022-11-13T23:54:25.453Z,99094.44
2022-11-13T23:57:12.158Z,99093.69
2022-11-13T23:59:58.516Z,99086.22
